Terminal Aerodrome Forecast
Issued by NWS

Home | Current Version | Previous Version | Text Only | Print | Product List | Glossary On
Versions: 1 2 3 4 5 6 7 8 9 10 11 12 13 14 15 16 17 18 19 20
744
FTUS43 KILX 092109 AAA
TAFCMI
TAF AMD
KCMI 092109Z 0921/1018 31015G23KT 6SM -SN OVC025
     FM100000 31015KT P6SM VCSH OVC025
     FM100300 31011KT P6SM BKN025=

USA.gov is the U.S. government's official web portal to all federal, state and local government web resources and services.